sensor_id;sensor_type;location;lat;lon;timestamp;P1;durP1;ratioP1;P2;durP2;ratioP2
3099;SDS011;1560;52.746;13.474;2022-10-16T00:02:18;5.57;;;5.07;;
3099;SDS011;1560;52.746;13.474;2022-10-16T00:04:47;4.87;;;4.23;;
3099;SDS011;1560;52.746;13.474;2022-10-16T00:07:15;6.20;;;4.17;;
3099;SDS011;1560;52.746;13.474;2022-10-16T00:09:44;5.50;;;4.10;;
3099;SDS011;1560;52.746;13.474;2022-10-16T00:12:13;5.63;;;4.60;;
3099;SDS011;1560;52.746;13.474;2022-10-16T00:14:41;5.90;;;3.90;;
3099;SDS011;1560;52.746;13.474;2022-10-16T00:19:46;4.30;;;3.83;;
3099;SDS011;1560;52.746;13.474;2022-10-16T00:24:51;4.40;;;3.60;;
3099;SDS011;1560;52.746;13.474;2022-10-16T00:27:19;6.60;;;4.23;;
3099;SDS011;1560;52.746;13.474;2022-10-16T00:29:49;3.67;;;3.27;;
3099;SDS011;1560;52.746;13.474;2022-10-16T00:32:18;4.57;;;3.60;;
3099;SDS011;1560;52.746;13.474;2022-10-16T00:34:47;4.67;;;3.90;;
3099;SDS011;1560;52.746;13.474;2022-10-16T00:37:15;4.90;;;3.50;;
3099;SDS011;1560;52.746;13.474;2022-10-16T00:39:44;5.20;;;3.60;;
3099;SDS011;1560;52.746;13.474;2022-10-16T00:42:13;3.47;;;3.13;;
3099;SDS011;1560;52.746;13.474;2022-10-16T00:44:45;4.30;;;3.90;;
3099;SDS011;1560;52.746;13.474;2022-10-16T00:47:17;6.33;;;3.43;;
3099;SDS011;1560;52.746;13.474;2022-10-16T00:49:59;7.30;;;3.80;;
3099;SDS011;1560;52.746;13.474;2022-10-16T00:52:31;6.30;;;4.00;;
3099;SDS011;1560;52.746;13.474;2022-10-16T00:55:08;3.20;;;2.90;;
3099;SDS011;1560;52.746;13.474;2022-10-16T00:57:38;4.80;;;3.40;;
3099;SDS011;1560;52.746;13.474;2022-10-16T01:00:09;5.10;;;3.20;;
3099;SDS011;1560;52.746;13.474;2022-10-16T01:02:52;4.27;;;3.33;;
3099;SDS011;1560;52.746;13.474;2022-10-16T01:05:21;4.80;;;4.00;;
3099;SDS011;1560;52.746;13.474;2022-10-16T01:07:53;5.67;;;3.20;;
3099;SDS011;1560;52.746;13.474;2022-10-16T01:10:26;4.47;;;3.27;;
3099;SDS011;1560;52.746;13.474;2022-10-16T01:13:05;3.87;;;3.33;;
3099;SDS011;1560;52.746;13.474;2022-10-16T01:15:37;3.93;;;3.30;;
3099;SDS011;1560;52.746;13.474;2022-10-16T01:18:08;3.57;;;3.10;;
3099;SDS011;1560;52.746;13.474;2022-10-16T01:20:47;3.57;;;2.93;;
3099;SDS011;1560;52.746;13.474;2022-10-16T01:23:21;4.37;;;3.03;;
3099;SDS011;1560;52.746;13.474;2022-10-16T01:28:36;4.37;;;3.40;;
3099;SDS011;1560;52.746;13.474;2022-10-16T01:31:08;6.20;;;3.60;;
3099;SDS011;1560;52.746;13.474;2022-10-16T01:36:15;4.03;;;3.10;;
3099;SDS011;1560;52.746;13.474;2022-10-16T01:38:47;4.77;;;3.13;;
3099;SDS011;1560;52.746;13.474;2022-10-16T01:41:20;8.60;;;3.37;;
3099;SDS011;1560;52.746;13.474;2022-10-16T01:43:58;3.37;;;3.03;;
3099;SDS011;1560;52.746;13.474;2022-10-16T01:46:30;4.20;;;3.60;;
3099;SDS011;1560;52.746;13.474;2022-10-16T01:51:36;3.17;;;2.83;;
3099;SDS011;1560;52.746;13.474;2022-10-16T01:54:06;8.37;;;3.40;;
3099;SDS011;1560;52.746;13.474;2022-10-16T01:56:44;3.50;;;3.20;;
3099;SDS011;1560;52.746;13.474;2022-10-16T01:59:14;3.90;;;2.80;;
3099;SDS011;1560;52.746;13.474;2022-10-16T02:01:54;3.80;;;3.07;;
3099;SDS011;1560;52.746;13.474;2022-10-16T02:04:26;6.37;;;2.80;;
3099;SDS011;1560;52.746;13.474;2022-10-16T02:06:57;4.10;;;3.00;;
3099;SDS011;1560;52.746;13.474;2022-10-16T02:09:26;3.37;;;2.50;;
3099;SDS011;1560;52.746;13.474;2022-10-16T02:11:54;7.93;;;3.20;;
3099;SDS011;1560;52.746;13.474;2022-10-16T02:14:28;4.30;;;2.80;;
3099;SDS011;1560;52.746;13.474;2022-10-16T02:17:10;2.90;;;2.60;;
3099;SDS011;1560;52.746;13.474;2022-10-16T02:19:39;3.43;;;2.80;;
3099;SDS011;1560;52.746;13.474;2022-10-16T02:22:09;4.57;;;2.73;;
3099;SDS011;1560;52.746;13.474;2022-10-16T02:24:42;4.00;;;2.70;;
3099;SDS011;1560;52.746;13.474;2022-10-16T02:27:20;4.33;;;2.83;;
3099;SDS011;1560;52.746;13.474;2022-10-16T02:29:52;3.40;;;2.90;;
3099;SDS011;1560;52.746;13.474;2022-10-16T02:32:26;5.17;;;3.00;;
3099;SDS011;1560;52.746;13.474;2022-10-16T02:35:04;4.47;;;3.20;;
3099;SDS011;1560;52.746;13.474;2022-10-16T02:37:35;2.77;;;2.43;;
3099;SDS011;1560;52.746;13.474;2022-10-16T02:40:07;3.50;;;3.07;;
3099;SDS011;1560;52.746;13.474;2022-10-16T02:42:38;3.70;;;2.93;;
3099;SDS011;1560;52.746;13.474;2022-10-16T02:45:15;10.33;;;6.67;;
3099;SDS011;1560;52.746;13.474;2022-10-16T02:47:45;12.13;;;6.53;;
3099;SDS011;1560;52.746;13.474;2022-10-16T02:50:14;10.93;;;7.40;;
3099;SDS011;1560;52.746;13.474;2022-10-16T02:52:42;14.80;;;7.87;;
3099;SDS011;1560;52.746;13.474;2022-10-16T02:55:20;8.30;;;5.67;;
3099;SDS011;1560;52.746;13.474;2022-10-16T02:57:49;5.33;;;4.07;;
3099;SDS011;1560;52.746;13.474;2022-10-16T03:00:18;6.00;;;4.03;;
3099;SDS011;1560;52.746;13.474;2022-10-16T03:02:47;5.17;;;3.43;;
3099;SDS011;1560;52.746;13.474;2022-10-16T03:05:15;3.83;;;3.40;;
3099;SDS011;1560;52.746;13.474;2022-10-16T03:07:44;3.50;;;3.20;;
3099;SDS011;1560;52.746;13.474;2022-10-16T03:10:13;5.43;;;3.23;;
3099;SDS011;1560;52.746;13.474;2022-10-16T03:12:41;4.17;;;3.40;;
3099;SDS011;1560;52.746;13.474;2022-10-16T03:17:46;9.60;;;2.97;;
3099;SDS011;1560;52.746;13.474;2022-10-16T03:20:15;4.23;;;2.80;;
3099;SDS011;1560;52.746;13.474;2022-10-16T03:22:43;4.87;;;3.47;;
3099;SDS011;1560;52.746;13.474;2022-10-16T03:25:12;3.60;;;3.07;;
3099;SDS011;1560;52.746;13.474;2022-10-16T03:27:40;3.17;;;2.80;;
3099;SDS011;1560;52.746;13.474;2022-10-16T03:32:45;2.70;;;2.10;;
3099;SDS011;1560;52.746;13.474;2022-10-16T03:35:14;7.63;;;2.53;;
3099;SDS011;1560;52.746;13.474;2022-10-16T03:37:42;4.00;;;3.07;;
3099;SDS011;1560;52.746;13.474;2022-10-16T03:40:12;4.00;;;2.60;;
3099;SDS011;1560;52.746;13.474;2022-10-16T03:45:16;3.10;;;2.60;;
3099;SDS011;1560;52.746;13.474;2022-10-16T03:47:45;3.83;;;2.70;;
3099;SDS011;1560;52.746;13.474;2022-10-16T03:50:14;3.57;;;2.53;;
3099;SDS011;1560;52.746;13.474;2022-10-16T03:52:42;3.90;;;2.80;;
3099;SDS011;1560;52.746;13.474;2022-10-16T03:55:11;2.73;;;2.40;;
3099;SDS011;1560;52.746;13.474;2022-10-16T04:00:16;3.80;;;2.93;;
3099;SDS011;1560;52.746;13.474;2022-10-16T04:05:20;8.23;;;2.93;;
3099;SDS011;1560;52.746;13.474;2022-10-16T04:07:49;5.83;;;2.77;;
3099;SDS011;1560;52.746;13.474;2022-10-16T04:12:53;3.43;;;2.50;;
3099;SDS011;1560;52.746;13.474;2022-10-16T04:15:22;4.43;;;3.07;;
3099;SDS011;1560;52.746;13.474;2022-10-16T04:17:51;4.73;;;2.73;;
3099;SDS011;1560;52.746;13.474;2022-10-16T04:20:20;3.97;;;2.90;;
3099;SDS011;1560;52.746;13.474;2022-10-16T04:22:48;4.80;;;3.50;;
3099;SDS011;1560;52.746;13.474;2022-10-16T04:25:17;4.50;;;2.93;;
3099;SDS011;1560;52.746;13.474;2022-10-16T04:27:46;6.70;;;3.10;;
3099;SDS011;1560;52.746;13.474;2022-10-16T04:30:15;4.87;;;2.63;;
3099;SDS011;1560;52.746;13.474;2022-10-16T04:32:47;2.77;;;2.30;;
3099;SDS011;1560;52.746;13.474;2022-10-16T04:35:15;3.03;;;2.50;;
3099;SDS011;1560;52.746;13.474;2022-10-16T04:40:20;2.87;;;2.27;;
3099;SDS011;1560;52.746;13.474;2022-10-16T04:42:49;4.50;;;2.70;;
3099;SDS011;1560;52.746;13.474;2022-10-16T04:45:17;2.83;;;2.30;;
3099;SDS011;1560;52.746;13.474;2022-10-16T04:47:46;5.60;;;2.90;;
3099;SDS011;1560;52.746;13.474;2022-10-16T04:50:14;3.70;;;3.20;;
3099;SDS011;1560;52.746;13.474;2022-10-16T04:52:43;3.13;;;2.77;;
3099;SDS011;1560;52.746;13.474;2022-10-16T04:55:11;4.00;;;3.10;;
3099;SDS011;1560;52.746;13.474;2022-10-16T05:00:16;6.33;;;2.53;;
3099;SDS011;1560;52.746;13.474;2022-10-16T05:02:45;3.03;;;2.40;;
3099;SDS011;1560;52.746;13.474;2022-10-16T05:05:13;4.20;;;2.20;;
3099;SDS011;1560;52.746;13.474;2022-10-16T05:07:42;3.53;;;2.60;;
3099;SDS011;1560;52.746;13.474;2022-10-16T05:10:11;2.50;;;2.20;;
3099;SDS011;1560;52.746;13.474;2022-10-16T05:12:38;3.10;;;2.57;;
3099;SDS011;1560;52.746;13.474;2022-10-16T05:15:08;4.57;;;2.37;;
3099;SDS011;1560;52.746;13.474;2022-10-16T05:17:37;3.80;;;2.60;;
3099;SDS011;1560;52.746;13.474;2022-10-16T05:20:06;3.47;;;2.73;;
3099;SDS011;1560;52.746;13.474;2022-10-16T05:25:11;3.60;;;2.30;;
3099;SDS011;1560;52.746;13.474;2022-10-16T05:27:39;4.90;;;2.43;;
3099;SDS011;1560;52.746;13.474;2022-10-16T05:30:09;7.00;;;3.13;;
3099;SDS011;1560;52.746;13.474;2022-10-16T05:35:14;3.30;;;2.73;;
3099;SDS011;1560;52.746;13.474;2022-10-16T05:37:43;5.93;;;3.10;;
3099;SDS011;1560;52.746;13.474;2022-10-16T05:40:11;3.13;;;2.43;;
3099;SDS011;1560;52.746;13.474;2022-10-16T05:45:18;4.50;;;3.07;;
3099;SDS011;1560;52.746;13.474;2022-10-16T05:47:46;6.77;;;2.40;;
3099;SDS011;1560;52.746;13.474;2022-10-16T05:50:15;2.93;;;2.63;;
3099;SDS011;1560;52.746;13.474;2022-10-16T05:55:19;3.73;;;2.93;;
3099;SDS011;1560;52.746;13.474;2022-10-16T05:57:48;4.07;;;2.90;;
3099;SDS011;1560;52.746;13.474;2022-10-16T06:00:17;6.07;;;3.43;;
3099;SDS011;1560;52.746;13.474;2022-10-16T06:02:45;3.03;;;2.73;;
3099;SDS011;1560;52.746;13.474;2022-10-16T06:05:14;2.83;;;2.53;;
3099;SDS011;1560;52.746;13.474;2022-10-16T06:07:42;5.70;;;3.10;;
3099;SDS011;1560;52.746;13.474;2022-10-16T06:10:12;4.17;;;3.33;;
3099;SDS011;1560;52.746;13.474;2022-10-16T06:12:58;3.40;;;2.70;;
3099;SDS011;1560;52.746;13.474;2022-10-16T06:18:03;8.07;;;3.80;;
3099;SDS011;1560;52.746;13.474;2022-10-16T06:20:31;5.47;;;3.23;;
3099;SDS011;1560;52.746;13.474;2022-10-16T06:25:36;4.10;;;3.30;;
3099;SDS011;1560;52.746;13.474;2022-10-16T06:28:04;5.37;;;3.10;;
3099;SDS011;1560;52.746;13.474;2022-10-16T06:30:33;2.97;;;2.67;;
3099;SDS011;1560;52.746;13.474;2022-10-16T06:33:01;3.73;;;2.90;;
3099;SDS011;1560;52.746;13.474;2022-10-16T06:35:30;4.40;;;3.20;;
3099;SDS011;1560;52.746;13.474;2022-10-16T06:37:58;3.97;;;3.23;;
3099;SDS011;1560;52.746;13.474;2022-10-16T06:40:27;3.10;;;2.80;;
3099;SDS011;1560;52.746;13.474;2022-10-16T06:42:56;4.20;;;3.13;;
3099;SDS011;1560;52.746;13.474;2022-10-16T06:48:00;5.30;;;4.00;;
3099;SDS011;1560;52.746;13.474;2022-10-16T06:50:30;4.23;;;3.13;;
3099;SDS011;1560;52.746;13.474;2022-10-16T06:52:59;3.33;;;2.97;;
3099;SDS011;1560;52.746;13.474;2022-10-16T06:55:27;3.83;;;3.33;;
3099;SDS011;1560;52.746;13.474;2022-10-16T06:57:55;3.60;;;3.10;;
3099;SDS011;1560;52.746;13.474;2022-10-16T07:03:00;4.17;;;3.50;;
3099;SDS011;1560;52.746;13.474;2022-10-16T07:05:29;4.37;;;3.97;;
3099;SDS011;1560;52.746;13.474;2022-10-16T07:07:57;4.07;;;3.30;;
3099;SDS011;1560;52.746;13.474;2022-10-16T07:13:02;3.40;;;2.80;;
3099;SDS011;1560;52.746;13.474;2022-10-16T07:15:33;4.20;;;3.23;;
3099;SDS011;1560;52.746;13.474;2022-10-16T07:18:02;4.10;;;3.07;;
3099;SDS011;1560;52.746;13.474;2022-10-16T07:20:30;3.47;;;3.17;;
3099;SDS011;1560;52.746;13.474;2022-10-16T07:22:59;4.70;;;3.10;;
3099;SDS011;1560;52.746;13.474;2022-10-16T07:28:04;3.23;;;2.77;;
3099;SDS011;1560;52.746;13.474;2022-10-16T07:30:34;4.33;;;3.00;;
3099;SDS011;1560;52.746;13.474;2022-10-16T07:35:47;3.30;;;3.00;;
3099;SDS011;1560;52.746;13.474;2022-10-16T07:38:16;8.47;;;3.10;;
3099;SDS011;1560;52.746;13.474;2022-10-16T07:40:45;8.63;;;2.80;;
3099;SDS011;1560;52.746;13.474;2022-10-16T07:43:14;4.20;;;3.03;;
3099;SDS011;1560;52.746;13.474;2022-10-16T07:45:49;4.30;;;3.10;;
3099;SDS011;1560;52.746;13.474;2022-10-16T07:48:18;6.00;;;2.83;;
3099;SDS011;1560;52.746;13.474;2022-10-16T07:50:47;5.07;;;3.23;;
3099;SDS011;1560;52.746;13.474;2022-10-16T07:53:15;4.57;;;3.17;;
3099;SDS011;1560;52.746;13.474;2022-10-16T07:58:20;4.47;;;3.00;;
3099;SDS011;1560;52.746;13.474;2022-10-16T08:00:48;3.60;;;3.20;;
3099;SDS011;1560;52.746;13.474;2022-10-16T08:03:17;3.27;;;2.97;;
3099;SDS011;1560;52.746;13.474;2022-10-16T08:05:45;2.87;;;2.40;;
3099;SDS011;1560;52.746;13.474;2022-10-16T08:08:14;4.40;;;3.17;;
3099;SDS011;1560;52.746;13.474;2022-10-16T08:10:44;4.50;;;2.93;;
3099;SDS011;1560;52.746;13.474;2022-10-16T08:13:21;4.20;;;2.97;;
3099;SDS011;1560;52.746;13.474;2022-10-16T08:15:50;3.80;;;3.17;;
3099;SDS011;1560;52.746;13.474;2022-10-16T08:18:21;7.13;;;3.70;;
3099;SDS011;1560;52.746;13.474;2022-10-16T08:20:55;4.87;;;3.50;;
3099;SDS011;1560;52.746;13.474;2022-10-16T08:23:24;4.93;;;3.40;;
3099;SDS011;1560;52.746;13.474;2022-10-16T08:26:03;9.73;;;3.30;;
3099;SDS011;1560;52.746;13.474;2022-10-16T08:28:32;3.60;;;3.23;;
3099;SDS011;1560;52.746;13.474;2022-10-16T08:31:08;4.17;;;2.93;;
3099;SDS011;1560;52.746;13.474;2022-10-16T08:33:38;4.40;;;3.50;;
3099;SDS011;1560;52.746;13.474;2022-10-16T08:36:09;4.70;;;3.50;;
3099;SDS011;1560;52.746;13.474;2022-10-16T08:41:20;5.43;;;2.97;;
3099;SDS011;1560;52.746;13.474;2022-10-16T08:43:59;3.80;;;3.20;;
3099;SDS011;1560;52.746;13.474;2022-10-16T08:46:35;5.80;;;3.70;;
3099;SDS011;1560;52.746;13.474;2022-10-16T08:49:08;3.10;;;2.80;;
3099;SDS011;1560;52.746;13.474;2022-10-16T08:54:19;3.73;;;3.13;;
3099;SDS011;1560;52.746;13.474;2022-10-16T08:56:50;4.50;;;3.20;;
3099;SDS011;1560;52.746;13.474;2022-10-16T08:59:20;3.87;;;3.50;;
3099;SDS011;1560;52.746;13.474;2022-10-16T09:01:50;9.53;;;3.87;;
3099;SDS011;1560;52.746;13.474;2022-10-16T09:07:12;3.70;;;3.17;;
3099;SDS011;1560;52.746;13.474;2022-10-16T09:09:51;4.40;;;4.00;;
3099;SDS011;1560;52.746;13.474;2022-10-16T09:12:24;4.93;;;3.87;;
3099;SDS011;1560;52.746;13.474;2022-10-16T09:15:04;4.93;;;4.47;;
3099;SDS011;1560;52.746;13.474;2022-10-16T09:17:47;10.00;;;3.70;;
3099;SDS011;1560;52.746;13.474;2022-10-16T09:25:49;3.40;;;3.10;;
3099;SDS011;1560;52.746;13.474;2022-10-16T09:28:18;4.80;;;3.73;;
3099;SDS011;1560;52.746;13.474;2022-10-16T09:30:47;6.50;;;3.50;;
3099;SDS011;1560;52.746;13.474;2022-10-16T09:33:25;3.10;;;2.80;;
3099;SDS011;1560;52.746;13.474;2022-10-16T09:35:56;3.73;;;3.03;;
3099;SDS011;1560;52.746;13.474;2022-10-16T09:38:26;4.23;;;2.93;;
3099;SDS011;1560;52.746;13.474;2022-10-16T09:43:33;8.23;;;2.67;;
3099;SDS011;1560;52.746;13.474;2022-10-16T09:46:05;4.20;;;3.60;;
3099;SDS011;1560;52.746;13.474;2022-10-16T09:48:36;4.20;;;3.23;;
3099;SDS011;1560;52.746;13.474;2022-10-16T09:51:23;4.37;;;3.43;;
3099;SDS011;1560;52.746;13.474;2022-10-16T09:53:43;6.30;;;3.83;;
3099;SDS011;1560;52.746;13.474;2022-10-16T09:56:22;3.80;;;3.40;;
3099;SDS011;1560;52.746;13.474;2022-10-16T09:58:52;3.83;;;3.50;;
3099;SDS011;1560;52.746;13.474;2022-10-16T10:01:22;4.50;;;3.37;;
3099;SDS011;1560;52.746;13.474;2022-10-16T10:03:55;7.07;;;3.07;;
3099;SDS011;1560;52.746;13.474;2022-10-16T10:06:29;2.70;;;2.50;;
3099;SDS011;1560;52.746;13.474;2022-10-16T10:09:02;5.00;;;3.20;;
3099;SDS011;1560;52.746;13.474;2022-10-16T10:11:42;3.00;;;2.70;;
3099;SDS011;1560;52.746;13.474;2022-10-16T10:14:26;4.80;;;2.77;;
3099;SDS011;1560;52.746;13.474;2022-10-16T10:17:10;4.13;;;2.77;;
3099;SDS011;1560;52.746;13.474;2022-10-16T10:19:48;3.83;;;3.43;;
3099;SDS011;1560;52.746;13.474;2022-10-16T10:22:19;4.57;;;3.10;;
3099;SDS011;1560;52.746;13.474;2022-10-16T10:24:57;2.97;;;2.67;;
3099;SDS011;1560;52.746;13.474;2022-10-16T10:27:41;3.33;;;3.03;;
3099;SDS011;1560;52.746;13.474;2022-10-16T10:30:15;3.47;;;3.13;;
3099;SDS011;1560;52.746;13.474;2022-10-16T10:32:48;3.97;;;2.93;;
3099;SDS011;1560;52.746;13.474;2022-10-16T10:35:21;3.83;;;2.53;;
3099;SDS011;1560;52.746;13.474;2022-10-16T10:37:57;3.73;;;3.00;;
3099;SDS011;1560;52.746;13.474;2022-10-16T10:43:08;3.00;;;2.60;;
3099;SDS011;1560;52.746;13.474;2022-10-16T10:45:41;6.97;;;3.27;;
3099;SDS011;1560;52.746;13.474;2022-10-16T10:48:27;3.33;;;2.30;;
3099;SDS011;1560;52.746;13.474;2022-10-16T10:51:00;4.73;;;2.83;;
3099;SDS011;1560;52.746;13.474;2022-10-16T10:56:18;4.30;;;2.50;;
3099;SDS011;1560;52.746;13.474;2022-10-16T10:58:57;3.60;;;2.40;;
3099;SDS011;1560;52.746;13.474;2022-10-16T11:01:33;3.27;;;2.43;;
3099;SDS011;1560;52.746;13.474;2022-10-16T11:04:32;2.90;;;2.47;;
3099;SDS011;1560;52.746;13.474;2022-10-16T11:07:28;3.00;;;2.70;;
3099;SDS011;1560;52.746;13.474;2022-10-16T11:10:02;6.13;;;2.80;;
3099;SDS011;1560;52.746;13.474;2022-10-16T11:12:31;2.77;;;2.33;;
3099;SDS011;1560;52.746;13.474;2022-10-16T11:17:40;3.07;;;2.30;;
3099;SDS011;1560;52.746;13.474;2022-10-16T11:20:13;4.37;;;2.60;;
3099;SDS011;1560;52.746;13.474;2022-10-16T11:22:45;4.50;;;2.60;;
3099;SDS011;1560;52.746;13.474;2022-10-16T11:25:18;2.93;;;2.40;;
3099;SDS011;1560;52.746;13.474;2022-10-16T11:27:49;4.00;;;2.37;;
3099;SDS011;1560;52.746;13.474;2022-10-16T11:30:20;2.97;;;2.50;;
3099;SDS011;1560;52.746;13.474;2022-10-16T11:32:56;3.93;;;2.27;;
3099;SDS011;1560;52.746;13.474;2022-10-16T11:35:32;3.60;;;2.77;;
3099;SDS011;1560;52.746;13.474;2022-10-16T11:38:07;4.53;;;2.30;;
3099;SDS011;1560;52.746;13.474;2022-10-16T11:43:17;3.03;;;2.30;;
3099;SDS011;1560;52.746;13.474;2022-10-16T11:45:48;5.73;;;2.60;;
3099;SDS011;1560;52.746;13.474;2022-10-16T11:51:09;3.17;;;2.57;;
3099;SDS011;1560;52.746;13.474;2022-10-16T11:56:21;15.00;;;11.40;;
3099;SDS011;1560;52.746;13.474;2022-10-16T11:58:58;5.80;;;4.90;;
3099;SDS011;1560;52.746;13.474;2022-10-16T12:21:12;3.93;;;2.57;;
3099;SDS011;1560;52.746;13.474;2022-10-16T12:34:21;3.53;;;2.57;;
3099;SDS011;1560;52.746;13.474;2022-10-16T12:36:52;7.57;;;3.10;;
3099;SDS011;1560;52.746;13.474;2022-10-16T12:39:23;3.63;;;3.10;;
3099;SDS011;1560;52.746;13.474;2022-10-16T12:42:03;4.40;;;2.43;;
3099;SDS011;1560;52.746;13.474;2022-10-16T12:44:33;5.30;;;2.10;;
3099;SDS011;1560;52.746;13.474;2022-10-16T12:47:51;4.50;;;1.97;;
3099;SDS011;1560;52.746;13.474;2022-10-16T12:50:30;4.40;;;2.07;;
3099;SDS011;1560;52.746;13.474;2022-10-16T13:06:13;3.20;;;2.07;;
3099;SDS011;1560;52.746;13.474;2022-10-16T13:08:53;5.00;;;3.13;;
3099;SDS011;1560;52.746;13.474;2022-10-16T13:14:07;5.17;;;3.17;;
3099;SDS011;1560;52.746;13.474;2022-10-16T13:16:49;5.27;;;4.63;;
3099;SDS011;1560;52.746;13.474;2022-10-16T13:19:21;3.10;;;2.47;;
3099;SDS011;1560;52.746;13.474;2022-10-16T13:21:56;2.07;;;1.47;;
3099;SDS011;1560;52.746;13.474;2022-10-16T13:24:32;3.23;;;1.70;;
3099;SDS011;1560;52.746;13.474;2022-10-16T13:27:07;2.37;;;1.63;;
3099;SDS011;1560;52.746;13.474;2022-10-16T13:29:37;2.43;;;1.50;;
3099;SDS011;1560;52.746;13.474;2022-10-16T13:32:07;1.70;;;1.20;;
3099;SDS011;1560;52.746;13.474;2022-10-16T13:34:43;3.37;;;1.53;;
3099;SDS011;1560;52.746;13.474;2022-10-16T13:37:18;3.50;;;1.87;;
3099;SDS011;1560;52.746;13.474;2022-10-16T13:39:49;2.30;;;1.30;;
3099;SDS011;1560;52.746;13.474;2022-10-16T13:42:21;3.67;;;1.73;;
3099;SDS011;1560;52.746;13.474;2022-10-16T13:44:51;3.10;;;1.60;;
3099;SDS011;1560;52.746;13.474;2022-10-16T13:47:21;4.07;;;2.63;;
3099;SDS011;1560;52.746;13.474;2022-10-16T13:49:59;2.83;;;1.63;;
3099;SDS011;1560;52.746;13.474;2022-10-16T13:52:37;3.20;;;1.40;;
3099;SDS011;1560;52.746;13.474;2022-10-16T13:55:10;1.83;;;1.33;;
3099;SDS011;1560;52.746;13.474;2022-10-16T13:57:41;2.00;;;1.30;;
3099;SDS011;1560;52.746;13.474;2022-10-16T14:00:54;3.70;;;1.80;;
3099;SDS011;1560;52.746;13.474;2022-10-16T14:03:26;2.70;;;2.17;;
3099;SDS011;1560;52.746;13.474;2022-10-16T14:05:56;4.00;;;2.90;;
3099;SDS011;1560;52.746;13.474;2022-10-16T14:08:27;5.20;;;2.80;;
3099;SDS011;1560;52.746;13.474;2022-10-16T14:10:57;5.10;;;2.63;;
3099;SDS011;1560;52.746;13.474;2022-10-16T14:13:30;2.80;;;1.87;;
3099;SDS011;1560;52.746;13.474;2022-10-16T14:29:12;5.33;;;1.23;;
3099;SDS011;1560;52.746;13.474;2022-10-16T14:31:56;2.37;;;1.23;;
3099;SDS011;1560;52.746;13.474;2022-10-16T14:47:57;3.00;;;2.27;;
3099;SDS011;1560;52.746;13.474;2022-10-16T14:50:27;5.33;;;2.40;;
3099;SDS011;1560;52.746;13.474;2022-10-16T14:52:56;4.03;;;2.30;;
3099;SDS011;1560;52.746;13.474;2022-10-16T14:58:06;2.73;;;1.90;;
3099;SDS011;1560;52.746;13.474;2022-10-16T15:00:39;4.43;;;1.50;;
3099;SDS011;1560;52.746;13.474;2022-10-16T15:03:07;2.13;;;1.50;;
3099;SDS011;1560;52.746;13.474;2022-10-16T15:05:37;3.37;;;2.30;;
3099;SDS011;1560;52.746;13.474;2022-10-16T15:21:07;4.63;;;2.30;;
3099;SDS011;1560;52.746;13.474;2022-10-16T15:26:12;4.17;;;2.90;;
3099;SDS011;1560;52.746;13.474;2022-10-16T15:28:43;3.10;;;2.67;;
3099;SDS011;1560;52.746;13.474;2022-10-16T15:31:19;4.50;;;2.80;;
3099;SDS011;1560;52.746;13.474;2022-10-16T15:33:53;4.30;;;3.00;;
3099;SDS011;1560;52.746;13.474;2022-10-16T15:36:25;3.20;;;2.03;;
3099;SDS011;1560;52.746;13.474;2022-10-16T15:38:54;2.70;;;2.30;;
3099;SDS011;1560;52.746;13.474;2022-10-16T15:43:59;2.57;;;2.27;;
3099;SDS011;1560;52.746;13.474;2022-10-16T15:46:27;3.87;;;2.00;;
3099;SDS011;1560;52.746;13.474;2022-10-16T15:48:57;4.40;;;1.77;;
3099;SDS011;1560;52.746;13.474;2022-10-16T15:51:26;4.47;;;2.47;;
3099;SDS011;1560;52.746;13.474;2022-10-16T15:54:04;4.33;;;1.67;;
3099;SDS011;1560;52.746;13.474;2022-10-16T15:56:34;2.60;;;1.73;;
3099;SDS011;1560;52.746;13.474;2022-10-16T15:59:05;4.40;;;2.20;;
3099;SDS011;1560;52.746;13.474;2022-10-16T16:01:33;3.97;;;1.83;;
3099;SDS011;1560;52.746;13.474;2022-10-16T16:04:03;5.07;;;3.40;;
3099;SDS011;1560;52.746;13.474;2022-10-16T16:06:31;4.63;;;3.13;;
3099;SDS011;1560;52.746;13.474;2022-10-16T16:09:00;5.87;;;2.60;;
3099;SDS011;1560;52.746;13.474;2022-10-16T16:11:29;4.10;;;2.03;;
3099;SDS011;1560;52.746;13.474;2022-10-16T16:14:01;3.10;;;2.00;;
3099;SDS011;1560;52.746;13.474;2022-10-16T16:16:31;7.13;;;2.30;;
3099;SDS011;1560;52.746;13.474;2022-10-16T16:19:01;2.27;;;1.80;;
3099;SDS011;1560;52.746;13.474;2022-10-16T16:21:29;4.93;;;2.20;;
3099;SDS011;1560;52.746;13.474;2022-10-16T16:24:07;3.97;;;2.57;;
3099;SDS011;1560;52.746;13.474;2022-10-16T16:26:36;15.23;;;4.50;;
3099;SDS011;1560;52.746;13.474;2022-10-16T16:31:42;4.00;;;2.63;;
3099;SDS011;1560;52.746;13.474;2022-10-16T16:34:12;6.23;;;2.67;;
3099;SDS011;1560;52.746;13.474;2022-10-16T16:39:18;5.80;;;2.97;;
3099;SDS011;1560;52.746;13.474;2022-10-16T16:41:47;5.90;;;2.80;;
3099;SDS011;1560;52.746;13.474;2022-10-16T16:46:52;5.33;;;3.20;;
3099;SDS011;1560;52.746;13.474;2022-10-16T16:49:21;4.67;;;2.43;;
3099;SDS011;1560;52.746;13.474;2022-10-16T16:51:49;8.53;;;2.93;;
3099;SDS011;1560;52.746;13.474;2022-10-16T16:54:26;4.73;;;4.23;;
3099;SDS011;1560;52.746;13.474;2022-10-16T16:56:55;4.57;;;4.00;;
3099;SDS011;1560;52.746;13.474;2022-10-16T16:59:32;6.43;;;4.67;;
3099;SDS011;1560;52.746;13.474;2022-10-16T17:02:01;10.37;;;8.17;;
3099;SDS011;1560;52.746;13.474;2022-10-16T17:07:06;31.30;;;22.40;;
3099;SDS011;1560;52.746;13.474;2022-10-16T17:09:35;50.93;;;44.53;;
3099;SDS011;1560;52.746;13.474;2022-10-16T17:12:04;49.30;;;41.30;;
3099;SDS011;1560;52.746;13.474;2022-10-16T17:14:32;25.07;;;22.43;;
3099;SDS011;1560;52.746;13.474;2022-10-16T17:19:37;10.50;;;9.50;;
3099;SDS011;1560;52.746;13.474;2022-10-16T17:22:05;7.97;;;7.07;;
3099;SDS011;1560;52.746;13.474;2022-10-16T17:24:34;8.47;;;7.57;;
3099;SDS011;1560;52.746;13.474;2022-10-16T17:27:03;8.83;;;6.10;;
3099;SDS011;1560;52.746;13.474;2022-10-16T17:29:32;8.60;;;5.90;;
3099;SDS011;1560;52.746;13.474;2022-10-16T17:32:00;7.50;;;5.73;;
3099;SDS011;1560;52.746;13.474;2022-10-16T17:34:29;5.40;;;4.90;;
3099;SDS011;1560;52.746;13.474;2022-10-16T17:36:57;8.33;;;5.00;;
3099;SDS011;1560;52.746;13.474;2022-10-16T17:42:02;8.50;;;6.70;;
3099;SDS011;1560;52.746;13.474;2022-10-16T17:47:06;17.07;;;13.10;;
3099;SDS011;1560;52.746;13.474;2022-10-16T17:49:35;13.70;;;12.07;;
3099;SDS011;1560;52.746;13.474;2022-10-16T17:52:04;17.63;;;15.53;;
3099;SDS011;1560;52.746;13.474;2022-10-16T17:57:12;18.17;;;13.90;;
3099;SDS011;1560;52.746;13.474;2022-10-16T17:59:40;16.43;;;13.43;;
3099;SDS011;1560;52.746;13.474;2022-10-16T18:02:09;24.80;;;19.60;;
3099;SDS011;1560;52.746;13.474;2022-10-16T18:04:38;22.37;;;17.10;;
3099;SDS011;1560;52.746;13.474;2022-10-16T18:07:06;19.63;;;15.67;;
3099;SDS011;1560;52.746;13.474;2022-10-16T18:09:44;11.83;;;9.80;;
3099;SDS011;1560;52.746;13.474;2022-10-16T18:12:12;11.53;;;9.60;;
3099;SDS011;1560;52.746;13.474;2022-10-16T18:14:41;6.13;;;4.30;;
3099;SDS011;1560;52.746;13.474;2022-10-16T18:17:09;9.23;;;3.40;;
3099;SDS011;1560;52.746;13.474;2022-10-16T18:19:47;6.23;;;3.70;;
3099;SDS011;1560;52.746;13.474;2022-10-16T18:24:52;5.80;;;4.10;;
3099;SDS011;1560;52.746;13.474;2022-10-16T18:27:20;5.00;;;4.00;;
3099;SDS011;1560;52.746;13.474;2022-10-16T18:29:49;7.60;;;3.60;;
3099;SDS011;1560;52.746;13.474;2022-10-16T18:32:19;5.63;;;4.77;;
3099;SDS011;1560;52.746;13.474;2022-10-16T18:34:47;7.20;;;4.60;;
3099;SDS011;1560;52.746;13.474;2022-10-16T18:37:25;7.37;;;4.00;;
3099;SDS011;1560;52.746;13.474;2022-10-16T18:39:53;4.83;;;4.33;;
3099;SDS011;1560;52.746;13.474;2022-10-16T18:47:45;4.33;;;3.57;;
3099;SDS011;1560;52.746;13.474;2022-10-16T18:50:14;4.43;;;3.87;;
3099;SDS011;1560;52.746;13.474;2022-10-16T18:52:46;5.63;;;4.03;;
3099;SDS011;1560;52.746;13.474;2022-10-16T18:55:23;5.40;;;4.47;;
3099;SDS011;1560;52.746;13.474;2022-10-16T18:57:54;4.10;;;3.70;;
3099;SDS011;1560;52.746;13.474;2022-10-16T19:00:22;9.97;;;3.60;;
3099;SDS011;1560;52.746;13.474;2022-10-16T19:02:51;9.90;;;3.80;;
3099;SDS011;1560;52.746;13.474;2022-10-16T19:05:19;7.60;;;4.10;;
3099;SDS011;1560;52.746;13.474;2022-10-16T19:07:48;3.70;;;2.87;;